Pointe-Lebel, Canada
Current Conditions -  °F | °C
As of 7:00 AM on Monday 26 Jan 2015 (Local Time) from CYBC Reporting Station
Clear Clear  
Wind Chill: -34°   Ceiling: Unl
Heat Index: -24°   Visibility: 9mi
Dew Point: -30°   Wind: 9mph
Humidity: 59%   Direction: 290°WNW
Pressure: 30.1"   Gusts: NA
Location:  49.15°N, 68.2°W
Report Text: CYBC 261200Z AUTO 29008KT 9SM CLR M24/M30 A3010 RMK SLP194
Loading
Personal Weather Stations






























Interactive Weather Map New forecast layout! Learn more

10-Day Weather Forecast

Advertisements
Track Severe Weather on mobile